Time;durP1;ratioP1;P1;durP2;ratioP2;P2;SDS_P1;SDS_P2;PMS_P1;PMS_P2;Temp;Humidity;BMP_temperature;BMP_pressure;BME280_temperature;BME280_humidity;BME280_pressure;Samples;Min_cycle;Max_cycle;Signal;HPM_P1;HPM_P2
2022/05/07 00:01:04;;;;;;;;;;;9.10;99.90;;;;;;5014971;28;19913;-59
2022/05/07 00:03:30;;;;;;;;;;;9.10;99.90;;;;;;4987047;28;20295;-59
2022/05/07 00:05:55;;;;;;;;;;;9.10;99.90;;;;;;4987864;28;19913;-59
2022/05/07 00:08:21;;;;;;;;;;;9.10;99.90;;;;;;4989021;28;19920;-59
2022/05/07 00:10:46;;;;;;;;;;;9.10;99.90;;;;;;4986175;28;19909;-60
2022/05/07 00:13:12;;;;;;;;;;;9.00;99.90;;;;;;4986287;28;20342;-59
2022/05/07 00:15:38;;;;;;;;;;;9.00;99.90;;;;;;4984486;28;19917;-59
2022/05/07 00:18:05;;;;;;;;;;;9.00;99.90;;;;;;4989630;28;20277;-59
2022/05/07 00:20:32;;;;;;;;;;;8.90;99.90;;;;;;4984976;28;20456;-60
2022/05/07 00:22:57;;;;;;;;;;;8.90;99.90;;;;;;4986651;28;19914;-60
2022/05/07 00:25:23;;;;;;;;;;;9.20;99.90;;;;;;4987642;28;20016;-60
2022/05/07 00:27:49;;;;;;;;;;;9.30;99.90;;;;;;4990312;28;19960;-60
2022/05/07 00:30:14;;;;;;;;;;;9.30;99.90;;;;;;4980042;28;19921;-60
2022/05/07 00:32:40;;;;;;;;;;;9.30;99.90;;;;;;4986537;28;19926;-59
2022/05/07 00:35:06;;;;;;;;;;;9.40;99.90;;;;;;4980201;28;19937;-59
2022/05/07 00:37:31;;;;;;;;;;;9.30;99.90;;;;;;4990629;28;19910;-60
2022/05/07 00:39:57;;;;;;;;;;;9.20;99.90;;;;;;4987052;28;19918;-60
2022/05/07 00:42:22;;;;;;;;;;;9.40;99.90;;;;;;4985405;28;19962;-60
2022/05/07 00:44:48;;;;;;;;;;;9.30;99.90;;;;;;4985260;28;19989;-60
2022/05/07 00:47:21;;;;;;;;;;;9.30;99.90;;;;;;4985184;28;19910;-59
2022/05/07 00:49:47;;;;;;;;;;;9.10;99.90;;;;;;4983032;28;19906;-60
2022/05/07 00:52:13;;;;;;;;;;;9.10;99.90;;;;;;4990834;28;19984;-59
2022/05/07 00:54:39;;;;;;;;;;;9.20;99.90;;;;;;4984778;28;19910;-60
2022/05/07 00:57:05;;;;;;;;;;;9.30;99.90;;;;;;4986386;28;19916;-59
2022/05/07 00:59:31;;;;;;;;;;;9.10;99.90;;;;;;4982801;28;19918;-59
2022/05/07 01:01:56;;;;;;;;;;;9.10;99.90;;;;;;4985151;28;20433;-59
2022/05/07 01:04:22;;;;;;;;;;;8.90;99.90;;;;;;4989892;28;19959;-60
2022/05/07 01:06:47;;;;;;;;;;;8.90;99.90;;;;;;4987769;28;20027;-60
2022/05/07 01:09:13;;;;;;;;;;;8.80;99.90;;;;;;4984132;28;20295;-59
2022/05/07 01:11:40;;;;;;;;;;;8.80;99.90;;;;;;4984979;28;19964;-59
2022/05/07 01:14:05;;;;;;;;;;;8.70;99.90;;;;;;4987450;28;19910;-59
2022/05/07 01:16:31;;;;;;;;;;;8.80;99.90;;;;;;4986051;28;19967;-60
2022/05/07 01:18:56;;;;;;;;;;;8.70;99.90;;;;;;4986014;28;20045;-59
2022/05/07 01:21:22;;;;;;;;;;;8.80;99.90;;;;;;4986121;28;19996;-59
2022/05/07 01:23:47;;;;;;;;;;;8.80;99.90;;;;;;4986098;28;19905;-59
2022/05/07 01:26:13;;;;;;;;;;;8.70;99.90;;;;;;4985525;28;19972;-60
2022/05/07 01:28:40;;;;;;;;;;;8.70;99.90;;;;;;4985409;28;20509;-59
2022/05/07 01:31:06;;;;;;;;;;;8.60;99.90;;;;;;4984083;28;19968;-59
2022/05/07 01:33:35;;;;;;;;;;;8.70;99.90;;;;;;4985933;28;20382;-59
2022/05/07 01:36:01;;;;;;;;;;;8.70;99.90;;;;;;4979984;28;19945;-59
2022/05/07 01:38:27;;;;;;;;;;;8.70;99.90;;;;;;4986491;28;19910;-60
2022/05/07 01:40:53;;;;;;;;;;;8.60;99.90;;;;;;4982040;28;19917;-60
2022/05/07 01:43:18;;;;;;;;;;;8.60;99.90;;;;;;4985580;28;19910;-59
2022/05/07 01:45:44;;;;;;;;;;;8.60;99.90;;;;;;4988865;28;19910;-60
2022/05/07 01:48:10;;;;;;;;;;;8.60;99.90;;;;;;4986683;28;19905;-59
2022/05/07 01:50:39;;;;;;;;;;;8.60;99.90;;;;;;4987037;28;20008;-59
2022/05/07 01:53:08;;;;;;;;;;;8.50;99.90;;;;;;4982916;28;19921;-59
2022/05/07 01:55:34;;;;;;;;;;;8.50;99.90;;;;;;4991502;28;19924;-60
2022/05/07 01:57:59;;;;;;;;;;;8.50;99.90;;;;;;4987634;28;19906;-60
2022/05/07 02:00:25;;;;;;;;;;;8.50;99.90;;;;;;4987470;28;20513;-60
2022/05/07 02:02:50;;;;;;;;;;;8.60;99.90;;;;;;4988626;28;19920;-59
2022/05/07 02:05:16;;;;;;;;;;;8.60;99.90;;;;;;4986228;28;20401;-60
2022/05/07 02:07:41;;;;;;;;;;;8.60;99.90;;;;;;4987453;28;19916;-59
2022/05/07 02:10:07;;;;;;;;;;;8.60;99.90;;;;;;4988186;28;19909;-59
2022/05/07 02:12:33;;;;;;;;;;;8.50;99.90;;;;;;4986121;28;19926;-59
2022/05/07 02:14:58;;;;;;;;;;;8.50;99.90;;;;;;4988279;28;19909;-60
2022/05/07 02:17:24;;;;;;;;;;;8.40;99.90;;;;;;5019858;28;19909;-60
2022/05/07 02:19:49;;;;;;;;;;;8.40;99.90;;;;;;4987960;28;20005;-60
2022/05/07 02:22:15;;;;;;;;;;;8.50;99.90;;;;;;4985273;28;20296;-60
2022/05/07 02:24:40;;;;;;;;;;;8.50;99.90;;;;;;4987980;28;19920;-60
2022/05/07 02:27:06;;;;;;;;;;;8.60;99.90;;;;;;4988369;28;19909;-59
2022/05/07 02:29:31;;;;;;;;;;;8.60;99.90;;;;;;4986534;28;19996;-59
2022/05/07 02:32:06;;;;;;;;;;;8.80;99.90;;;;;;4987393;28;20414;-59
2022/05/07 02:34:35;;;;;;;;;;;8.90;99.90;;;;;;4989259;28;20468;-60
2022/05/07 02:37:01;;;;;;;;;;;8.90;99.90;;;;;;4990161;28;20273;-59
2022/05/07 02:39:27;;;;;;;;;;;8.90;99.90;;;;;;4990274;28;20000;-60
2022/05/07 02:44:37;;;;;;;;;;;8.70;99.90;;;;;;4987831;28;19944;-59
2022/05/07 02:47:03;;;;;;;;;;;8.90;99.90;;;;;;4989026;28;20406;-59
2022/05/07 02:49:29;;;;;;;;;;;8.80;99.90;;;;;;4988361;28;19960;-59
2022/05/07 02:51:54;;;;;;;;;;;8.70;99.90;;;;;;4987465;28;19956;-59
2022/05/07 02:54:20;;;;;;;;;;;8.60;99.90;;;;;;4988440;28;19916;-60
2022/05/07 02:56:45;;;;;;;;;;;8.60;99.90;;;;;;4987445;28;20466;-59
2022/05/07 02:59:11;;;;;;;;;;;8.50;99.90;;;;;;4986415;28;19914;-59
2022/05/07 03:01:36;;;;;;;;;;;8.60;99.90;;;;;;4988056;28;20243;-59
2022/05/07 03:04:01;;;;;;;;;;;8.60;99.90;;;;;;4987401;28;20000;-59
2022/05/07 03:06:27;;;;;;;;;;;8.60;99.90;;;;;;4988155;28;19913;-59
2022/05/07 03:08:52;;;;;;;;;;;8.60;99.90;;;;;;4987155;28;20004;-59
2022/05/07 03:11:18;;;;;;;;;;;8.70;99.90;;;;;;4987486;28;19964;-60
2022/05/07 03:13:43;;;;;;;;;;;8.60;99.90;;;;;;4983748;28;19913;-59
2022/05/07 03:16:09;;;;;;;;;;;8.70;99.90;;;;;;4989839;28;19993;-59
2022/05/07 03:18:38;;;;;;;;;;;8.70;99.90;;;;;;4990228;28;19917;-59
2022/05/07 03:21:03;;;;;;;;;;;8.70;99.90;;;;;;4996967;28;19920;-59
2022/05/07 03:23:29;;;;;;;;;;;8.60;99.90;;;;;;4987541;28;20382;-59
2022/05/07 03:25:55;;;;;;;;;;;8.40;99.90;;;;;;4988065;28;19905;-60
2022/05/07 03:28:21;;;;;;;;;;;8.30;99.90;;;;;;4987205;28;19914;-59
2022/05/07 03:30:46;;;;;;;;;;;8.30;99.90;;;;;;4985446;28;20032;-59
2022/05/07 03:33:12;;;;;;;;;;;8.20;99.90;;;;;;4987097;28;19925;-60
2022/05/07 03:35:39;;;;;;;;;;;8.20;99.90;;;;;;4987675;28;19910;-60
2022/05/07 03:38:04;;;;;;;;;;;8.20;99.90;;;;;;4986581;28;19917;-60
2022/05/07 03:40:31;;;;;;;;;;;8.20;99.90;;;;;;4987073;28;19909;-59
2022/05/07 03:42:57;;;;;;;;;;;8.20;99.90;;;;;;4986282;28;19909;-59
2022/05/07 03:45:23;;;;;;;;;;;8.20;99.90;;;;;;4987139;28;19960;-60
2022/05/07 03:47:49;;;;;;;;;;;8.20;99.90;;;;;;4986309;28;19910;-59
2022/05/07 03:50:14;;;;;;;;;;;8.20;99.90;;;;;;4986704;28;19917;-59
2022/05/07 03:55:24;;;;;;;;;;;8.20;99.90;;;;;;4987111;28;19964;-59
2022/05/07 03:57:49;;;;;;;;;;;8.30;99.90;;;;;;4988260;28;19937;-60
2022/05/07 04:00:15;;;;;;;;;;;8.60;99.90;;;;;;4986179;28;20376;-60
2022/05/07 04:02:40;;;;;;;;;;;8.70;99.90;;;;;;4986868;28;20314;-58
2022/05/07 04:05:06;;;;;;;;;;;8.60;99.90;;;;;;4987159;28;20338;-59
2022/05/07 04:07:32;;;;;;;;;;;8.60;99.90;;;;;;4987645;28;20358;-59
2022/05/07 04:09:57;;;;;;;;;;;8.60;99.90;;;;;;4986317;28;19909;-59
2022/05/07 04:12:23;;;;;;;;;;;8.60;99.90;;;;;;4986594;28;19918;-59
2022/05/07 04:14:49;;;;;;;;;;;8.70;99.90;;;;;;4986129;28;19964;-59
2022/05/07 04:17:14;;;;;;;;;;;8.70;99.90;;;;;;4986690;28;19917;-59
2022/05/07 04:19:40;;;;;;;;;;;8.80;99.90;;;;;;4986810;28;19916;-59
2022/05/07 04:22:05;;;;;;;;;;;8.80;99.90;;;;;;4986126;28;19913;-59
2022/05/07 04:24:33;;;;;;;;;;;8.80;99.90;;;;;;4986841;28;20382;-59
2022/05/07 04:26:59;;;;;;;;;;;8.80;99.90;;;;;;4985778;28;20008;-59
2022/05/07 04:29:24;;;;;;;;;;;8.90;99.90;;;;;;4984745;28;19996;-59
2022/05/07 04:31:50;;;;;;;;;;;9.00;99.90;;;;;;4985758;28;19926;-59
2022/05/07 04:34:15;;;;;;;;;;;9.00;99.90;;;;;;4986689;28;19910;-59
2022/05/07 04:36:41;;;;;;;;;;;9.00;99.90;;;;;;4987857;28;19942;-59
2022/05/07 04:39:06;;;;;;;;;;;9.10;99.90;;;;;;4988493;28;19905;-60
2022/05/07 04:41:32;;;;;;;;;;;9.30;99.90;;;;;;4987635;28;20008;-59
2022/05/07 04:43:58;;;;;;;;;;;9.40;99.90;;;;;;4985978;28;19945;-60
2022/05/07 04:46:24;;;;;;;;;;;9.60;99.90;;;;;;4987105;28;19959;-59
2022/05/07 04:48:49;;;;;;;;;;;9.70;99.90;;;;;;4986830;28;20377;-59
2022/05/07 04:51:15;;;;;;;;;;;9.80;99.90;;;;;;4986544;28;19906;-59
2022/05/07 04:53:40;;;;;;;;;;;9.90;99.90;;;;;;4986468;28;19949;-60
2022/05/07 04:56:06;;;;;;;;;;;10.10;99.90;;;;;;4985804;28;20014;-59
2022/05/07 04:58:31;;;;;;;;;;;10.20;99.90;;;;;;4985890;28;20271;-60
2022/05/07 05:00:57;;;;;;;;;;;10.40;99.90;;;;;;4983865;28;19972;-60
2022/05/07 05:03:22;;;;;;;;;;;10.50;99.90;;;;;;4986417;28;19913;-60
2022/05/07 05:05:48;;;;;;;;;;;10.60;99.90;;;;;;4986184;28;20060;-59
2022/05/07 05:08:14;;;;;;;;;;;10.70;99.90;;;;;;4986205;28;19949;-59
2022/05/07 05:10:39;;;;;;;;;;;10.80;99.90;;;;;;4984179;28;19909;-60
2022/05/07 05:13:05;;;;;;;;;;;10.90;99.90;;;;;;4985539;28;19913;-59
2022/05/07 05:15:31;;;;;;;;;;;11.20;99.90;;;;;;4986097;28;19910;-60
2022/05/07 05:17:57;;;;;;;;;;;11.40;99.90;;;;;;4988141;28;19910;-59
2022/05/07 05:20:22;;;;;;;;;;;11.60;99.90;;;;;;4992531;28;20401;-60
2022/05/07 05:22:48;;;;;;;;;;;11.70;99.90;;;;;;4989955;28;20017;-60
2022/05/07 05:25:14;;;;;;;;;;;11.80;99.90;;;;;;4989798;28;19921;-59
2022/05/07 05:27:40;;;;;;;;;;;12.00;99.90;;;;;;4990886;28;20449;-59
2022/05/07 05:30:05;;;;;;;;;;;11.90;99.90;;;;;;4988072;28;19992;-60
2022/05/07 05:32:31;;;;;;;;;;;12.00;99.90;;;;;;4989516;28;20271;-60
2022/05/07 05:34:56;;;;;;;;;;;12.20;99.90;;;;;;4989325;28;19973;-59
2022/05/07 05:37:22;;;;;;;;;;;12.20;99.90;;;;;;4989877;28;19909;-59
2022/05/07 05:39:47;;;;;;;;;;;12.30;99.90;;;;;;4988910;28;19913;-59
2022/05/07 05:42:13;;;;;;;;;;;12.40;99.90;;;;;;4989408;28;19913;-59
2022/05/07 05:44:39;;;;;;;;;;;12.50;99.90;;;;;;4989451;28;19913;-59
2022/05/07 05:47:08;;;;;;;;;;;12.60;99.90;;;;;;4989032;28;20392;-59
2022/05/07 05:49:34;;;;;;;;;;;12.70;99.90;;;;;;4989343;28;19921;-59
2022/05/07 05:52:00;;;;;;;;;;;12.80;99.90;;;;;;4988778;28;19913;-59
2022/05/07 05:54:26;;;;;;;;;;;13.00;99.90;;;;;;4989448;28;19909;-59
2022/05/07 05:56:52;;;;;;;;;;;13.10;99.90;;;;;;4988808;28;19968;-59
2022/05/07 05:59:17;;;;;;;;;;;13.30;99.90;;;;;;4989503;28;19909;-59
2022/05/07 06:01:42;;;;;;;;;;;13.40;99.90;;;;;;4990780;28;20144;-59
2022/05/07 06:04:08;;;;;;;;;;;13.60;99.90;;;;;;4988008;28;19960;-60
2022/05/07 06:06:33;;;;;;;;;;;13.80;99.90;;;;;;4988387;28;19913;-60
2022/05/07 06:08:59;;;;;;;;;;;13.90;99.90;;;;;;4989496;28;19912;-59
2022/05/07 06:11:24;;;;;;;;;;;13.90;99.90;;;;;;4988824;28;19910;-59
2022/05/07 06:13:50;;;;;;;;;;;14.00;99.90;;;;;;4988398;28;20518;-59
2022/05/07 06:16:17;;;;;;;;;;;14.10;99.90;;;;;;4988656;28;19909;-59
2022/05/07 06:18:42;;;;;;;;;;;14.20;99.90;;;;;;4988168;28;19972;-59
2022/05/07 06:21:08;;;;;;;;;;;14.20;99.90;;;;;;4988236;28;19910;-60
2022/05/07 06:23:33;;;;;;;;;;;14.40;99.90;;;;;;4985061;28;19914;-60
2022/05/07 06:28:43;;;;;;;;;;;14.70;99.90;;;;;;4987618;28;19917;-61
2022/05/07 06:31:11;;;;;;;;;;;14.80;99.90;;;;;;4985885;28;19910;-60
2022/05/07 06:33:38;;;;;;;;;;;15.00;99.90;;;;;;4988283;28;20012;-59
2022/05/07 06:36:05;;;;;;;;;;;15.30;99.90;;;;;;4987759;28;19921;-59
2022/05/07 06:38:30;;;;;;;;;;;15.30;99.90;;;;;;4989985;28;19941;-59
2022/05/07 06:40:56;;;;;;;;;;;15.40;99.90;;;;;;4990363;28;19979;-60
2022/05/07 06:43:23;;;;;;;;;;;15.50;99.90;;;;;;4989416;28;19914;-59
2022/05/07 06:45:48;;;;;;;;;;;15.40;99.90;;;;;;4988218;28;19997;-59
2022/05/07 06:48:14;;;;;;;;;;;15.90;99.90;;;;;;4987002;28;20302;-60
2022/05/07 06:50:39;;;;;;;;;;;16.40;99.90;;;;;;4988700;28;19968;-60
2022/05/07 06:53:05;;;;;;;;;;;16.40;99.90;;;;;;4987662;28;19920;-59
2022/05/07 06:55:32;;;;;;;;;;;16.50;99.90;;;;;;4988087;28;19916;-60
2022/05/07 06:57:59;;;;;;;;;;;16.80;99.90;;;;;;4987848;28;19913;-60
2022/05/07 07:00:25;;;;;;;;;;;17.00;99.90;;;;;;4986766;28;19983;-60
2022/05/07 07:02:50;;;;;;;;;;;16.90;99.90;;;;;;4987558;28;20370;-60
2022/05/07 07:05:16;;;;;;;;;;;16.70;99.90;;;;;;4988193;28;19909;-60
2022/05/07 07:07:41;;;;;;;;;;;16.70;99.90;;;;;;4984466;28;19910;-59
2022/05/07 07:10:07;;;;;;;;;;;16.80;99.90;;;;;;4987132;28;19910;-60
2022/05/07 07:12:38;;;;;;;;;;;16.90;99.90;;;;;;4987883;28;19921;-59
2022/05/07 07:15:04;;;;;;;;;;;16.80;99.90;;;;;;4987077;28;19914;-59
2022/05/07 07:17:32;;;;;;;;;;;16.80;99.90;;;;;;4986750;28;19914;-60
2022/05/07 07:19:57;;;;;;;;;;;16.90;99.90;;;;;;4986333;28;19914;-59
2022/05/07 07:22:23;;;;;;;;;;;17.10;99.90;;;;;;4986450;28;19914;-60
2022/05/07 07:24:48;;;;;;;;;;;17.40;99.90;;;;;;4986358;28;19909;-59
2022/05/07 07:27:14;;;;;;;;;;;17.70;99.90;;;;;;4984564;28;20690;-60
2022/05/07 07:29:39;;;;;;;;;;;17.90;99.90;;;;;;4985047;28;19917;-59
2022/05/07 07:32:05;;;;;;;;;;;17.80;99.90;;;;;;4985247;28;19932;-60
2022/05/07 07:34:30;;;;;;;;;;;17.50;99.90;;;;;;4986459;28;20374;-60
2022/05/07 07:36:56;;;;;;;;;;;17.70;99.90;;;;;;4985204;28;20631;-60
2022/05/07 07:39:21;;;;;;;;;;;17.90;99.90;;;;;;4984015;28;19910;-59
2022/05/07 07:41:47;;;;;;;;;;;18.00;99.90;;;;;;4983645;28;20732;-59
2022/05/07 07:44:12;;;;;;;;;;;18.00;99.90;;;;;;4985243;28;19910;-60
2022/05/07 07:49:22;;;;;;;;;;;18.30;99.90;;;;;;4985577;28;19971;-60
2022/05/07 07:51:47;;;;;;;;;;;18.30;99.90;;;;;;4984089;28;20285;-59
2022/05/07 07:54:14;;;;;;;;;;;18.10;99.90;;;;;;4983850;28;19924;-59
2022/05/07 07:56:39;;;;;;;;;;;18.10;99.90;;;;;;4984017;28;19910;-59
2022/05/07 07:59:05;;;;;;;;;;;18.10;99.90;;;;;;4984657;28;19916;-60
2022/05/07 08:01:31;;;;;;;;;;;18.40;99.90;;;;;;4987730;28;20080;-61
2022/05/07 08:03:56;;;;;;;;;;;18.70;99.90;;;;;;4985934;28;20416;-60
2022/05/07 08:06:22;;;;;;;;;;;19.00;99.90;;;;;;4982700;28;19913;-59
2022/05/07 08:11:41;;;;;;;;;;;19.40;99.90;;;;;;4983972;28;19968;-60
2022/05/07 08:14:09;;;;;;;;;;;19.90;99.90;;;;;;4983490;28;19921;-60
2022/05/07 08:16:35;;;;;;;;;;;19.80;99.90;;;;;;4984084;28;19917;-60
2022/05/07 08:19:03;;;;;;;;;;;20.10;99.90;;;;;;4983181;28;19984;-60
2022/05/07 08:21:28;;;;;;;;;;;20.20;99.90;;;;;;4985079;28;19913;-60
2022/05/07 08:23:54;;;;;;;;;;;20.20;99.90;;;;;;4978618;28;20044;-60
2022/05/07 08:26:19;;;;;;;;;;;20.70;99.60;;;;;;4984483;28;19910;-60
2022/05/07 08:28:45;;;;;;;;;;;21.10;99.30;;;;;;4983360;28;19960;-60
2022/05/07 08:31:11;;;;;;;;;;;21.70;98.20;;;;;;4984662;28;19921;-60
2022/05/07 08:33:37;;;;;;;;;;;22.20;96.30;;;;;;4986506;28;20001;-60
2022/05/07 08:36:03;;;;;;;;;;;22.70;94.20;;;;;;4983212;28;19913;-60
2022/05/07 08:38:28;;;;;;;;;;;23.40;93.20;;;;;;4980636;28;20429;-61
2022/05/07 08:40:54;;;;;;;;;;;23.60;91.80;;;;;;4987955;28;19953;-60
2022/05/07 08:43:20;;;;;;;;;;;23.90;90.80;;;;;;4989282;28;20008;-60
2022/05/07 08:45:45;;;;;;;;;;;23.50;91.00;;;;;;4984927;28;19917;-60
2022/05/07 08:48:11;;;;;;;;;;;23.40;91.00;;;;;;4983041;28;19964;-61
2022/05/07 08:50:40;;;;;;;;;;;23.50;91.30;;;;;;4986441;28;19916;-61
2022/05/07 08:53:06;;;;;;;;;;;23.40;90.50;;;;;;4980716;28;19968;-60
2022/05/07 08:55:32;;;;;;;;;;;23.90;89.80;;;;;;4986945;28;19921;-60
2022/05/07 08:57:58;;;;;;;;;;;23.80;88.30;;;;;;4984403;28;19914;-61
2022/05/07 09:00:24;;;;;;;;;;;23.80;89.10;;;;;;4984998;28;20005;-60
2022/05/07 09:02:55;;;;;;;;;;;23.80;87.40;;;;;;4986824;28;19933;-60
2022/05/07 09:05:21;;;;;;;;;;;23.70;87.80;;;;;;4988649;28;19917;-60
2022/05/07 09:07:51;;;;;;;;;;;23.80;87.80;;;;;;4983010;28;19913;-60
2022/05/07 09:10:16;;;;;;;;;;;24.60;85.50;;;;;;4989464;28;19916;-60
2022/05/07 09:12:42;;;;;;;;;;;25.00;82.80;;;;;;4985398;28;19913;-60
2022/05/07 09:15:08;;;;;;;;;;;25.50;81.80;;;;;;4983634;28;19993;-60
2022/05/07 09:17:34;;;;;;;;;;;26.10;79.40;;;;;;4986367;28;19909;-60
2022/05/07 09:20:10;;;;;;;;;;;25.80;78.70;;;;;;4987153;28;19910;-60
2022/05/07 09:22:46;;;;;;;;;;;25.20;78.80;;;;;;4984187;28;19909;-60
2022/05/07 09:25:17;;;;;;;;;;;25.50;79.10;;;;;;4986699;28;20039;-60
2022/05/07 09:27:46;;;;;;;;;;;25.30;77.70;;;;;;4984404;28;20689;-60
2022/05/07 09:30:12;;;;;;;;;;;25.40;79.00;;;;;;4984768;28;20453;-60
2022/05/07 09:32:38;;;;;;;;;;;25.60;80.60;;;;;;4986373;28;19976;-60
2022/05/07 09:38:01;;;;;;;;;;;24.70;78.70;;;;;;4982572;28;19921;-61
2022/05/07 09:40:27;;;;;;;;;;;24.40;80.00;;;;;;4984805;28;19916;-60
2022/05/07 09:42:55;;;;;;;;;;;24.50;79.90;;;;;;4982649;28;19909;-61
2022/05/07 09:45:21;;;;;;;;;;;24.80;80.30;;;;;;4983249;28;19997;-60
2022/05/07 09:47:46;;;;;;;;;;;25.30;78.20;;;;;;4984496;28;19999;-60
2022/05/07 09:50:23;;;;;;;;;;;25.20;78.00;;;;;;4982505;28;19914;-60
2022/05/07 09:58:17;;;;;;;;;;;26.20;75.90;;;;;;4977190;28;19917;-60
2022/05/07 10:00:53;;;;;;;;;;;27.40;74.90;;;;;;4981999;28;19917;-61
2022/05/07 10:03:31;;;;;;;;;;;27.30;73.90;;;;;;4975590;28;19914;-60
2022/05/07 10:06:10;;;;;;;;;;;26.80;73.10;;;;;;4982926;28;19909;-60
2022/05/07 10:08:54;;;;;;;;;;;26.70;74.40;;;;;;4979683;28;19910;-60
2022/05/07 10:11:20;;;;;;;;;;;26.00;74.00;;;;;;4980555;28;19910;-60
2022/05/07 10:13:55;;;;;;;;;;;25.10;75.90;;;;;;4978714;28;19920;-60
2022/05/07 10:16:22;;;;;;;;;;;25.00;76.00;;;;;;4982455;28;19910;-60
2022/05/07 10:18:47;;;;;;;;;;;24.90;76.60;;;;;;4978016;28;20330;-60
2022/05/07 10:21:14;;;;;;;;;;;24.70;78.70;;;;;;4983167;28;19945;-60
2022/05/07 10:23:50;;;;;;;;;;;24.40;78.40;;;;;;4977516;28;20589;-60
2022/05/07 10:26:16;;;;;;;;;;;24.20;78.10;;;;;;4986072;28;19960;-59
2022/05/07 10:28:42;;;;;;;;;;;25.20;76.80;;;;;;4985755;28;20405;-60
2022/05/07 10:31:18;;;;;;;;;;;26.30;74.80;;;;;;4985095;28;19952;-60
2022/05/07 10:33:44;;;;;;;;;;;27.20;71.20;;;;;;4988879;28;20377;-59
2022/05/07 10:36:10;;;;;;;;;;;27.00;72.00;;;;;;4988224;28;19988;-60
2022/05/07 10:38:37;;;;;;;;;;;25.60;74.20;;;;;;4989044;28;20025;-59
2022/05/07 10:41:11;;;;;;;;;;;24.90;75.20;;;;;;4989399;28;19917;-60
2022/05/07 10:43:38;;;;;;;;;;;24.00;78.60;;;;;;4988320;28;19956;-60
2022/05/07 10:46:06;;;;;;;;;;;23.20;81.40;;;;;;4987946;28;20375;-59
2022/05/07 10:48:44;;;;;;;;;;;23.00;80.50;;;;;;4988537;28;19996;-59
2022/05/07 10:51:16;;;;;;;;;;;22.20;83.30;;;;;;4987730;28;20485;-59
2022/05/07 10:53:41;;;;;;;;;;;22.10;83.90;;;;;;4988034;28;19960;-59
2022/05/07 10:56:17;;;;;;;;;;;22.40;82.60;;;;;;4987297;28;19909;-60
2022/05/07 10:58:43;;;;;;;;;;;22.90;82.20;;;;;;4987917;28;19914;-60
2022/05/07 11:01:09;;;;;;;;;;;23.40;81.20;;;;;;4985331;28;19920;-60
2022/05/07 11:03:35;;;;;;;;;;;23.50;80.20;;;;;;4988097;28;20281;-59
2022/05/07 11:06:01;;;;;;;;;;;23.90;80.30;;;;;;4987817;28;19913;-59
2022/05/07 11:08:30;;;;;;;;;;;24.90;79.00;;;;;;4988198;28;19910;-59
2022/05/07 11:11:08;;;;;;;;;;;24.60;78.80;;;;;;4989379;28;19906;-59
2022/05/07 11:13:53;;;;;;;;;;;24.50;78.50;;;;;;4990041;28;19909;-60
2022/05/07 11:16:19;;;;;;;;;;;24.60;78.10;;;;;;4988718;28;20581;-60
2022/05/07 11:18:48;;;;;;;;;;;24.10;77.70;;;;;;4984059;28;19921;-59
2022/05/07 11:21:14;;;;;;;;;;;23.50;78.20;;;;;;4988236;28;19916;-59
2022/05/07 11:23:40;;;;;;;;;;;23.20;79.60;;;;;;4990017;28;19906;-59
2022/05/07 11:26:13;;;;;;;;;;;22.40;81.00;;;;;;4989550;28;19906;-59
2022/05/07 11:28:39;;;;;;;;;;;22.10;83.00;;;;;;4986813;28;19992;-59
2022/05/07 11:31:05;;;;;;;;;;;22.10;83.20;;;;;;4979634;28;19917;-59
2022/05/07 11:33:30;;;;;;;;;;;22.30;84.60;;;;;;4987472;28;19984;-60
2022/05/07 11:36:00;;;;;;;;;;;22.50;84.30;;;;;;4985968;28;19993;-59
2022/05/07 11:38:25;;;;;;;;;;;22.40;83.70;;;;;;4985425;28;19916;-59
2022/05/07 11:40:52;;;;;;;;;;;22.40;83.60;;;;;;4983949;28;19913;-60
2022/05/07 11:46:06;;;;;;;;;;;22.80;83.70;;;;;;4986445;28;20010;-60
2022/05/07 11:48:31;;;;;;;;;;;24.20;82.50;;;;;;4987395;28;19921;-60
2022/05/07 11:50:59;;;;;;;;;;;25.20;80.20;;;;;;4987085;28;20700;-60
2022/05/07 11:53:35;;;;;;;;;;;26.50;75.20;;;;;;4994545;28;19918;-60
2022/05/07 11:56:04;;;;;;;;;;;28.20;70.50;;;;;;4987216;28;19997;-60
2022/05/07 11:58:37;;;;;;;;;;;29.10;69.50;;;;;;4986553;28;20381;-60
2022/05/07 12:01:03;;;;;;;;;;;28.70;67.10;;;;;;4983442;28;19924;-60
2022/05/07 12:03:28;;;;;;;;;;;27.00;68.60;;;;;;4994804;28;19993;-60
2022/05/07 12:05:55;;;;;;;;;;;25.70;71.20;;;;;;4989384;28;20000;-60
2022/05/07 12:08:29;;;;;;;;;;;25.60;70.80;;;;;;4987846;28;19960;-60
2022/05/07 12:10:54;;;;;;;;;;;25.20;71.90;;;;;;4986825;28;19975;-60
2022/05/07 12:13:21;;;;;;;;;;;25.00;72.90;;;;;;4986686;28;20285;-60
2022/05/07 12:18:30;;;;;;;;;;;24.90;74.00;;;;;;4986201;28;19917;-60
2022/05/07 12:20:57;;;;;;;;;;;24.50;74.20;;;;;;4984501;28;19909;-60
2022/05/07 12:31:35;;;;;;;;;;;23.50;77.50;;;;;;4984625;28;20465;-60
2022/05/07 12:34:00;;;;;;;;;;;23.60;76.20;;;;;;4986572;28;19913;-60
2022/05/07 12:36:28;;;;;;;;;;;22.60;78.00;;;;;;4985919;28;19910;-59
2022/05/07 12:38:54;;;;;;;;;;;22.80;78.00;;;;;;4985987;28;20370;-60
2022/05/07 12:41:20;;;;;;;;;;;22.80;77.80;;;;;;4985982;28;19917;-60
2022/05/07 12:43:46;;;;;;;;;;;22.90;79.00;;;;;;4986079;28;19909;-59
2022/05/07 12:46:11;;;;;;;;;;;23.10;78.20;;;;;;4988286;28;20005;-59
2022/05/07 12:48:37;;;;;;;;;;;22.50;79.90;;;;;;4988021;28;19906;-59
2022/05/07 12:51:02;;;;;;;;;;;21.90;83.80;;;;;;4986390;28;19956;-59
2022/05/07 12:53:28;;;;;;;;;;;21.90;85.10;;;;;;4985814;28;19914;-59
2022/05/07 12:55:54;;;;;;;;;;;21.90;86.30;;;;;;4986671;28;19910;-60
2022/05/07 12:58:19;;;;;;;;;;;22.60;84.30;;;;;;4985728;28;19968;-61
2022/05/07 13:00:44;;;;;;;;;;;22.90;81.70;;;;;;4984512;28;19936;-59
2022/05/07 13:03:10;;;;;;;;;;;22.00;83.90;;;;;;4986089;28;19972;-60
2022/05/07 13:05:36;;;;;;;;;;;22.10;83.80;;;;;;4986293;28;19917;-59
2022/05/07 13:08:04;;;;;;;;;;;22.20;83.70;;;;;;4986616;28;20420;-60
2022/05/07 13:10:30;;;;;;;;;;;22.40;84.50;;;;;;4985692;28;19910;-60
2022/05/07 13:12:56;;;;;;;;;;;22.90;82.50;;;;;;4986297;28;19921;-60
2022/05/07 13:15:22;;;;;;;;;;;23.10;83.70;;;;;;4982651;28;20470;-60
2022/05/07 13:17:47;;;;;;;;;;;23.50;84.20;;;;;;4983722;28;19960;-60
2022/05/07 13:20:12;;;;;;;;;;;23.70;82.70;;;;;;4985205;28;20285;-60
2022/05/07 13:22:38;;;;;;;;;;;24.90;80.90;;;;;;4986160;28;19910;-60
2022/05/07 13:25:04;;;;;;;;;;;26.30;78.90;;;;;;4986781;28;19910;-60
2022/05/07 13:27:31;;;;;;;;;;;26.30;77.70;;;;;;4985072;28;20386;-60
2022/05/07 13:29:56;;;;;;;;;;;26.90;74.60;;;;;;4993714;28;19910;-60
2022/05/07 13:32:23;;;;;;;;;;;27.70;74.50;;;;;;4985381;28;19932;-61
2022/05/07 13:34:48;;;;;;;;;;;28.40;73.20;;;;;;4986060;28;19910;-60
2022/05/07 13:37:13;;;;;;;;;;;29.50;71.90;;;;;;4986536;28;19921;-60
2022/05/07 13:39:39;;;;;;;;;;;29.80;71.40;;;;;;4987621;28;19917;-60
2022/05/07 13:42:05;;;;;;;;;;;29.40;72.50;;;;;;4988913;28;19971;-60
2022/05/07 13:44:30;;;;;;;;;;;28.50;72.00;;;;;;4989328;28;19910;-60
2022/05/07 13:46:56;;;;;;;;;;;28.30;70.90;;;;;;4988977;28;20409;-60
2022/05/07 13:49:21;;;;;;;;;;;27.00;72.30;;;;;;4988612;28;19917;-59
2022/05/07 13:51:47;;;;;;;;;;;26.00;75.00;;;;;;4988946;28;19916;-60
2022/05/07 13:54:12;;;;;;;;;;;25.20;76.90;;;;;;4983219;28;19910;-60
2022/05/07 13:56:38;;;;;;;;;;;24.70;77.50;;;;;;4989337;28;19917;-59
2022/05/07 13:59:03;;;;;;;;;;;24.50;77.80;;;;;;4987390;28;19941;-60
2022/05/07 14:01:29;;;;;;;;;;;24.50;79.00;;;;;;4989072;28;19914;-60
2022/05/07 14:03:54;;;;;;;;;;;24.50;78.60;;;;;;4986486;28;19909;-60
2022/05/07 14:06:22;;;;;;;;;;;24.60;79.20;;;;;;4990357;28;20276;-60
2022/05/07 14:08:48;;;;;;;;;;;24.80;79.20;;;;;;4991574;28;19917;-60
2022/05/07 14:11:13;;;;;;;;;;;25.50;77.90;;;;;;4989729;28;19910;-61
2022/05/07 14:13:39;;;;;;;;;;;26.20;77.00;;;;;;4984029;28;20403;-60
2022/05/07 14:16:04;;;;;;;;;;;27.10;76.00;;;;;;4989357;28;19996;-60
2022/05/07 14:18:30;;;;;;;;;;;27.80;73.20;;;;;;4989243;28;19910;-60
2022/05/07 14:20:58;;;;;;;;;;;27.30;74.60;;;;;;4988477;28;20385;-60
2022/05/07 14:23:23;;;;;;;;;;;26.70;74.60;;;;;;4988699;28;19997;-60
2022/05/07 14:25:49;;;;;;;;;;;27.10;76.20;;;;;;4989104;28;20413;-60
2022/05/07 14:28:14;;;;;;;;;;;26.70;74.40;;;;;;4987864;28;20068;-60
2022/05/07 14:30:41;;;;;;;;;;;25.40;76.60;;;;;;4987233;28;20281;-60
2022/05/07 14:33:08;;;;;;;;;;;24.50;78.80;;;;;;4988277;28;19933;-61
2022/05/07 14:35:36;;;;;;;;;;;23.80;79.60;;;;;;4989016;28;20273;-60
2022/05/07 14:38:02;;;;;;;;;;;24.40;81.30;;;;;;4985645;28;20412;-59
2022/05/07 14:40:33;;;;;;;;;;;23.30;82.00;;;;;;4987710;28;19909;-60
2022/05/07 14:43:01;;;;;;;;;;;23.70;79.70;;;;;;4987949;28;20004;-61
2022/05/07 14:45:27;;;;;;;;;;;23.50;80.20;;;;;;4988181;28;19909;-59
2022/05/07 14:47:54;;;;;;;;;;;23.60;81.70;;;;;;4990076;28;19978;-60
2022/05/07 14:50:19;;;;;;;;;;;24.30;78.70;;;;;;4990180;28;20449;-59
2022/05/07 14:52:45;;;;;;;;;;;24.20;79.30;;;;;;4989492;28;19914;-60